Time;durP1;ratioP1;P1;durP2;ratioP2;P2;SDS_P1;SDS_P2;PMS_P1;PMS_P2;Temp;Humidity;BMP_temperature;BMP_pressure;BME280_temperature;BME280_humidity;BME280_pressure;Samples;Min_cycle;Max_cycle;Signal;HPM_P1;HPM_P2
2021/08/08 00:01:51;;;;;;;15.53;4.03;;;;;;;;;;5115594;27;20825;-82
2021/08/08 00:04:18;;;;;;;18.23;4.40;;;;;;;;;;5115678;27;20701;-82
2021/08/08 00:06:45;;;;;;;16.87;4.70;;;;;;;;;;5115362;28;20704;-82
2021/08/08 00:09:12;;;;;;;17.93;4.30;;;;;;;;;;5115423;28;20252;-82
2021/08/08 00:11:40;;;;;;;14.67;4.67;;;;;;;;;;5114837;28;20240;-82
2021/08/08 00:14:07;;;;;;;18.70;4.80;;;;;;;;;;5114877;28;20712;-82
2021/08/08 00:16:36;;;;;;;17.13;4.90;;;;;;;;;;5115211;28;20280;-82
2021/08/08 00:19:03;;;;;;;14.50;4.00;;;;;;;;;;5115082;28;20225;-82
2021/08/08 00:21:30;;;;;;;15.17;4.90;;;;;;;;;;5115214;28;20232;-82
2021/08/08 00:23:57;;;;;;;15.33;4.87;;;;;;;;;;5115100;28;20301;-82
2021/08/08 00:26:24;;;;;;;24.63;4.97;;;;;;;;;;5114930;28;20619;-82
2021/08/08 00:28:51;;;;;;;15.27;4.50;;;;;;;;;;5114780;28;20289;-82
2021/08/08 00:31:23;;;;;;;14.47;4.70;;;;;;;;;;5114894;28;20285;-83
2021/08/08 00:33:51;;;;;;;18.23;4.80;;;;;;;;;;5114941;28;20225;-82
2021/08/08 00:36:19;;;;;;;17.57;4.90;;;;;;;;;;5114941;28;20224;-81
2021/08/08 00:38:46;;;;;;;15.57;4.90;;;;;;;;;;5114930;28;20241;-82
2021/08/08 00:41:13;;;;;;;18.43;4.97;;;;;;;;;;5115191;28;20217;-81
2021/08/08 00:43:41;;;;;;;20.27;4.80;;;;;;;;;;5114565;28;20633;-82
2021/08/08 00:46:08;;;;;;;14.67;4.43;;;;;;;;;;5114016;27;20737;-82
2021/08/08 00:48:35;;;;;;;20.67;5.70;;;;;;;;;;5114205;28;20246;-81
2021/08/08 00:51:04;;;;;;;16.13;4.97;;;;;;;;;;5114294;27;20849;-82
2021/08/08 00:53:32;;;;;;;21.03;5.20;;;;;;;;;;5114435;27;20269;-81
2021/08/08 00:55:59;;;;;;;22.60;5.03;;;;;;;;;;5114521;28;20285;-82
2021/08/08 00:58:28;;;;;;;19.13;5.53;;;;;;;;;;5113846;28;20229;-82
2021/08/08 01:00:56;;;;;;;20.13;5.67;;;;;;;;;;5114572;28;20201;-82
2021/08/08 01:03:24;;;;;;;14.53;4.70;;;;;;;;;;5114505;28;20297;-82
2021/08/08 01:05:52;;;;;;;18.77;4.77;;;;;;;;;;5114347;28;20288;-82
2021/08/08 01:08:23;;;;;;;21.60;5.40;;;;;;;;;;5113877;28;20665;-82
2021/08/08 01:10:51;;;;;;;20.83;5.23;;;;;;;;;;5114264;28;20234;-82
2021/08/08 01:13:18;;;;;;;12.93;5.17;;;;;;;;;;5113440;28;20724;-82
2021/08/08 01:15:45;;;;;;;23.47;6.10;;;;;;;;;;5113918;28;20636;-82
2021/08/08 01:18:14;;;;;;;21.30;5.40;;;;;;;;;;5114038;28;20336;-82
2021/08/08 01:20:42;;;;;;;17.00;4.77;;;;;;;;;;5114047;27;20209;-81
2021/08/08 01:23:10;;;;;;;18.97;4.43;;;;;;;;;;5114172;27;20208;-82
2021/08/08 01:25:39;;;;;;;19.50;5.07;;;;;;;;;;5114034;28;20240;-81
2021/08/08 01:28:07;;;;;;;17.83;5.10;;;;;;;;;;5113277;28;20208;-81
2021/08/08 01:30:33;;;;;;;19.87;4.80;;;12.80;99.90;;;;;;5113952;28;20285;-82
2021/08/08 01:33:02;;;;;;;22.27;6.43;;;12.70;99.90;;;;;;5115449;27;20304;-82
2021/08/08 01:35:30;;;;;;;24.27;5.63;;;;;;;;;;5134235;27;20727;-81
2021/08/08 01:37:57;;;;;;;23.60;5.30;;;12.70;99.90;;;;;;5134403;27;20204;-82
2021/08/08 01:40:28;;;;;;;23.13;5.67;;;;;;;;;;5133798;27;20287;-82
2021/08/08 01:43:00;;;;;;;24.87;5.57;;;12.70;99.90;;;;;;5134153;27;20284;-82
2021/08/08 01:45:28;;;;;;;16.77;5.63;;;;;;;;;;5134302;27;20229;-81
2021/08/08 01:47:58;;;;;;;13.97;4.87;;;;;;;;;;5133845;27;20232;-82
2021/08/08 01:50:31;;;;;;;22.17;5.73;;;;;;;;;;5134053;27;20201;-82
2021/08/08 01:52:59;;;;;;;13.47;5.27;;;;;;;;;;5113085;28;20263;-82
2021/08/08 01:55:27;;;;;;;17.37;4.90;;;;;;;;;;5113026;28;20202;-82
2021/08/08 01:57:55;;;;;;;21.37;5.23;;;;;;;;;;5113407;28;20280;-82
2021/08/08 02:00:26;;;;;;;21.63;5.40;;;;;;;;;;5112945;28;20292;-82
2021/08/08 02:02:55;;;;;;;19.67;5.70;;;;;;;;;;5113165;28;20364;-82
2021/08/08 02:05:22;;;;;;;20.00;5.27;;;;;;;;;;5113362;28;20200;-81
2021/08/08 02:07:50;;;;;;;27.67;5.77;;;;;;;;;;5111874;28;20236;-82
2021/08/08 02:10:17;;;;;;;25.73;5.63;;;;;;;;;;5112867;28;20228;-82
2021/08/08 02:12:44;;;;;;;21.87;5.87;;;;;;;;;;5113070;28;20375;-82
2021/08/08 02:15:12;;;;;;;20.17;5.33;;;;;;;;;;5113215;28;20312;-82
2021/08/08 02:17:41;;;;;;;20.50;5.70;;;;;;;;;;5113224;28;20296;-81
2021/08/08 02:20:11;;;;;;;19.73;5.47;;;;;;;;;;5113516;28;20311;-82
2021/08/08 02:22:39;;;;;;;21.50;4.60;;;;;;;;;;5112846;28;20237;-82
2021/08/08 02:25:08;;;;;;;21.90;5.80;;;;;;;;;;5112336;28;21007;-81
2021/08/08 02:27:36;;;;;;;13.63;5.30;;;;;;;;;;5112908;28;20232;-82
2021/08/08 02:30:05;;;;;;;24.17;5.77;;;;;;;;;;5112703;28;20190;-82
2021/08/08 02:32:33;;;;;;;20.73;5.00;;;;;;;;;;5112654;28;20284;-81
2021/08/08 02:35:02;;;;;;;22.87;4.90;;;;;;;;;;5112264;28;21123;-82
2021/08/08 02:37:30;;;;;;;22.30;5.23;;;;;;;;;;5112782;28;20693;-82
2021/08/08 02:39:58;;;;;;;19.73;5.47;;;;;;;;;;5112384;28;20236;-82
2021/08/08 02:42:25;;;;;;;20.70;5.77;;;;;;;;;;5112641;28;20236;-82
2021/08/08 02:44:52;;;;;;;21.07;5.47;;;;;;;;;;5112884;28;20296;-81
2021/08/08 02:47:20;;;;;;;20.60;5.70;;;;;;;;;;5112804;28;20225;-81
2021/08/08 02:49:48;;;;;;;18.97;5.67;;;;;;;;;;5112198;28;20297;-81
2021/08/08 02:52:16;;;;;;;15.50;5.53;;;;;;;;;;5112614;28;20293;-81
2021/08/08 02:54:43;;;;;;;21.57;5.30;;;12.20;99.90;;;;;;5112355;28;20730;-82
2021/08/08 02:57:10;;;;;;;16.90;5.43;;;12.30;99.90;;;;;;5112776;28;20229;-82
2021/08/08 02:59:37;;;;;;;16.27;5.10;;;12.30;99.90;;;;;;5112621;28;20280;-82
2021/08/08 03:02:04;;;;;;;19.87;5.27;;;12.30;99.90;;;;;;5112108;28;20282;-82
2021/08/08 03:04:31;;;;;;;18.40;5.43;;;12.30;99.90;;;;;;5112768;28;20276;-82
2021/08/08 03:06:58;;;;;;;23.43;5.50;;;12.20;99.90;;;;;;5112418;27;20289;-81
2021/08/08 03:09:27;;;;;;;22.23;5.33;;;12.20;99.90;;;;;;5114629;28;20304;-82
2021/08/08 03:11:53;;;;;;;19.00;5.63;;;12.20;99.90;;;;;;5116601;28;20232;-82
2021/08/08 03:14:21;;;;;;;24.60;5.90;;;12.30;99.90;;;;;;5116347;27;20226;-82
2021/08/08 03:16:48;;;;;;;23.30;5.33;;;12.20;99.90;;;;;;5116489;28;20301;-82
2021/08/08 03:19:16;;;;;;;25.93;5.50;;;12.20;99.90;;;;;;5116588;28;20624;-82
2021/08/08 03:21:44;;;;;;;20.90;5.47;;;12.20;99.90;;;;;;5116572;28;20292;-82
2021/08/08 03:24:11;;;;;;;25.00;6.30;;;12.20;99.90;;;;;;5116106;28;20221;-82
2021/08/08 03:26:39;;;;;;;21.50;6.13;;;12.20;99.90;;;;;;5116702;28;20218;-82
2021/08/08 03:29:08;;;;;;;21.53;5.30;;;12.10;99.90;;;;;;5116061;27;20288;-81
2021/08/08 03:31:36;;;;;;;22.20;5.40;;;12.10;99.90;;;;;;5116095;28;20194;-82
2021/08/08 03:34:02;;;;;;;17.73;5.50;;;12.00;99.90;;;;;;5116023;28;20316;-82
2021/08/08 03:36:30;;;;;;;18.67;5.53;;;12.10;99.90;;;;;;5115654;28;20233;-81
2021/08/08 03:38:57;;;;;;;21.53;5.57;;;12.00;99.90;;;;;;5116030;28;20244;-82
2021/08/08 03:41:23;;;;;;;21.93;5.37;;;12.10;99.90;;;;;;5116024;27;20255;-82
2021/08/08 03:43:52;;;;;;;21.93;6.13;;;12.10;99.90;;;;;;5116164;28;20280;-82
2021/08/08 03:46:19;;;;;;;22.70;5.83;;;12.10;99.90;;;;;;5116136;28;20225;-82
2021/08/08 03:48:45;;;;;;;24.43;5.40;;;12.10;99.90;;;;;;5115769;28;20229;-82
2021/08/08 03:51:12;;;;;;;25.37;5.60;;;12.00;99.90;;;;;;5115679;28;20289;-81
2021/08/08 03:53:39;;;;;;;19.03;5.37;;;12.00;99.90;;;;;;5115669;28;20289;-82
2021/08/08 03:56:06;;;;;;;20.17;5.57;;;12.00;99.90;;;;;;5115436;28;20266;-82
2021/08/08 03:58:33;;;;;;;21.13;5.80;;;11.90;99.90;;;;;;5115949;28;20204;-82
2021/08/08 04:01:02;;;;;;;19.10;5.57;;;12.00;99.90;;;;;;5115593;28;20301;-82
2021/08/08 04:03:30;;;;;;;20.67;5.57;;;11.90;99.90;;;;;;5115229;28;20290;-81
2021/08/08 04:05:57;;;;;;;21.03;5.60;;;11.90;99.90;;;;;;5115001;28;20288;-81
2021/08/08 04:08:24;;;;;;;25.23;5.83;;;12.00;99.90;;;;;;5115514;28;20249;-82
2021/08/08 04:10:50;;;;;;;22.73;5.40;;;11.90;99.90;;;;;;5115807;28;20288;-82
2021/08/08 04:13:17;;;;;;;22.60;5.57;;;11.80;99.90;;;;;;5115237;28;20288;-81
2021/08/08 04:15:44;;;;;;;24.27;5.33;;;11.90;99.90;;;;;;5115013;28;20243;-82
2021/08/08 04:18:13;;;;;;;21.00;5.17;;;11.80;99.90;;;;;;5115387;28;20194;-82
2021/08/08 04:20:40;;;;;;;24.20;6.10;;;11.80;99.90;;;;;;5113558;28;20576;-81
2021/08/08 04:23:10;;;;;;;16.70;5.03;;;11.90;99.90;;;;;;5115262;27;20285;-82
2021/08/08 04:25:38;;;;;;;25.27;5.93;;;11.90;99.90;;;;;;5113915;28;20254;-82
2021/08/08 04:28:06;;;;;;;21.57;5.17;;;11.90;99.90;;;;;;5115181;28;20284;-82
2021/08/08 04:30:33;;;;;;;25.23;5.40;;;11.80;99.90;;;;;;5115074;28;20223;-82
2021/08/08 04:33:00;;;;;;;24.73;5.50;;;11.80;99.90;;;;;;5114814;28;20734;-82
2021/08/08 04:35:29;;;;;;;21.97;5.13;;;11.90;99.90;;;;;;5114831;28;20312;-82
2021/08/08 04:37:56;;;;;;;14.83;5.23;;;11.90;99.90;;;;;;5114883;28;20308;-82
2021/08/08 04:40:23;;;;;;;19.03;5.70;;;11.80;99.90;;;;;;5114651;28;20246;-82
2021/08/08 04:42:50;;;;;;;23.57;5.27;;;11.90;99.90;;;;;;5114964;28;20284;-82
2021/08/08 04:45:19;;;;;;;21.00;5.57;;;11.80;99.90;;;;;;5114879;28;20343;-82
2021/08/08 04:47:46;;;;;;;19.93;5.47;;;11.90;99.90;;;;;;5113210;28;20237;-82
2021/08/08 04:50:13;;;;;;;23.87;5.57;;;11.90;99.90;;;;;;5114246;28;20201;-82
2021/08/08 04:52:41;;;;;;;21.97;5.20;;;11.80;99.90;;;;;;5114667;28;20292;-82
2021/08/08 04:55:10;;;;;;;19.17;5.13;;;11.80;99.90;;;;;;5114339;28;20252;-82
2021/08/08 04:57:37;;;;;;;18.57;5.07;;;11.80;99.90;;;;;;5114325;28;20730;-81
2021/08/08 05:00:04;;;;;;;24.07;5.60;;;11.80;99.90;;;;;;5114404;28;20638;-82
2021/08/08 05:02:31;;;;;;;21.50;6.37;;;11.80;99.90;;;;;;5114592;28;20298;-82
2021/08/08 05:04:58;;;;;;;25.90;5.00;;;11.90;99.90;;;;;;5113944;28;20289;-82
2021/08/08 05:07:25;;;;;;;19.60;5.57;;;11.80;99.90;;;;;;5114118;28;20766;-82
2021/08/08 05:09:53;;;;;;;18.03;5.07;;;11.80;99.90;;;;;;5114304;28;20328;-82
2021/08/08 05:12:20;;;;;;;22.90;5.93;;;11.90;99.90;;;;;;5114198;28;20288;-81
2021/08/08 05:14:47;;;;;;;20.77;5.10;;;11.90;99.90;;;;;;5113959;28;20312;-82
2021/08/08 05:17:14;;;;;;;23.30;5.53;;;11.90;99.90;;;;;;5114152;28;20236;-82
2021/08/08 05:19:41;;;;;;;19.47;5.43;;;12.00;99.90;;;;;;5113945;27;20281;-81
2021/08/08 05:22:08;;;;;;;23.13;6.07;;;12.00;99.90;;;;;;5113705;28;20292;-82
2021/08/08 05:24:35;;;;;;;21.80;5.67;;;11.90;99.90;;;;;;5113921;28;20277;-82
2021/08/08 05:27:04;;;;;;;20.63;5.07;;;12.00;99.90;;;;;;5113758;28;20744;-81
2021/08/08 05:29:31;;;;;;;22.87;5.47;;;12.10;99.90;;;;;;5113812;28;20225;-81
2021/08/08 05:31:57;;;;;;;24.37;5.67;;;12.20;99.90;;;;;;5113409;28;20230;-82
2021/08/08 05:34:24;;;;;;;18.30;5.20;;;12.20;99.90;;;;;;5113238;28;20700;-81
2021/08/08 05:36:51;;;;;;;19.70;5.10;;;12.30;99.90;;;;;;5113493;28;20300;-82
2021/08/08 05:39:18;;;;;;;23.43;5.47;;;12.30;99.90;;;;;;5113411;28;20236;-81
2021/08/08 05:41:45;;;;;;;16.90;4.73;;;12.50;99.90;;;;;;5112991;28;20197;-82
2021/08/08 05:44:13;;;;;;;19.17;5.00;;;12.60;99.90;;;;;;5113902;28;20288;-82
2021/08/08 05:46:40;;;;;;;23.97;5.57;;;12.80;99.90;;;;;;5113853;28;20591;-82
2021/08/08 05:49:08;;;;;;;15.70;5.07;;;12.90;99.90;;;;;;5113109;28;20601;-82
2021/08/08 05:51:37;;;;;;;14.37;5.00;;;13.10;99.90;;;;;;5113947;27;20205;-82
2021/08/08 05:54:04;;;;;;;24.27;4.77;;;13.30;99.90;;;;;;5113274;28;20237;-82
2021/08/08 05:56:31;;;;;;;15.50;4.33;;;13.60;99.90;;;;;;5113259;28;20313;-81
2021/08/08 05:58:58;;;;;;;19.83;4.97;;;13.90;99.90;;;;;;5113466;28;20233;-82
2021/08/08 06:01:26;;;;;;;15.70;3.90;;;14.10;99.90;;;;;;5113052;28;20285;-82
2021/08/08 06:03:53;;;;;;;12.57;4.13;;;14.30;99.90;;;;;;5113451;28;20284;-82
2021/08/08 06:06:20;;;;;;;17.33;4.50;;;14.60;99.90;;;;;;5113221;28;20217;-82
2021/08/08 06:08:47;;;;;;;12.73;3.93;;;15.00;99.90;;;;;;5112699;28;20224;-81
2021/08/08 06:11:14;;;;;;;15.27;3.57;;;15.50;99.90;;;;;;5113118;28;20309;-82
2021/08/08 06:13:42;;;;;;;13.17;3.70;;;;;;;;;;5112793;28;20288;-81
2021/08/08 06:16:10;;;;;;;12.87;3.60;;;;;;;;;;5112485;28;20621;-81
2021/08/08 06:18:40;;;;;;;10.00;3.50;;;;;;;;;;5112809;28;20233;-81
2021/08/08 06:21:08;;;;;;;15.35;4.13;;;;;;;;;;5112831;28;20246;-82
2021/08/08 06:23:37;;;;;;;12.40;3.50;;;;;;;;;;5112724;28;20284;-81
2021/08/08 06:26:06;;;;;;;10.80;3.58;;;;;;;;;;5112765;28;20232;-82
2021/08/08 06:28:34;;;;;;;13.68;4.18;;;;;;;;;;5112994;28;20285;-82
2021/08/08 06:31:03;;;;;;;9.90;3.47;;;;;;;;;;5113036;28;20289;-82
2021/08/08 06:33:32;;;;;;;12.05;3.53;;;;;;;;;;5112647;28;20200;-81
2021/08/08 06:36:02;;;;;;;9.20;3.58;;;;;;;;;;5112291;28;20257;-81
2021/08/08 06:38:31;;;;;;;13.68;3.47;;;;;;;;;;5112770;28;20233;-82
2021/08/08 06:41:00;;;;;;;10.80;3.38;;;19.50;99.90;;;;;;5112751;28;20723;-82
2021/08/08 06:43:29;;;;;;;13.10;3.35;;;19.30;99.90;;;;;;5114036;28;20232;-83
2021/08/08 06:45:58;;;;;;;11.98;3.40;;;19.30;99.90;;;;;;5116999;28;20273;-82
2021/08/08 06:48:27;;;;;;;9.48;3.28;;;19.20;99.90;;;;;;5116928;28;20745;-81
2021/08/08 06:50:56;;;;;;;16.38;3.92;;;18.70;99.90;;;;;;5117124;28;20284;-82
2021/08/08 06:53:26;;;;;;;11.10;3.42;;;;;;;;;;5116458;28;20268;-82
2021/08/08 06:55:55;;;;;;;9.13;3.63;;;;;;;;;;5116426;28;20308;-82
2021/08/08 06:58:24;;;;;;;13.70;3.40;;;;;;;;;;5116482;27;20580;-82
2021/08/08 07:00:53;;;;;;;11.50;3.40;;;;;;;;;;5116600;28;20288;-82
2021/08/08 07:03:22;;;;;;;11.65;3.53;;;;;;;;;;5116996;28;20200;-82
2021/08/08 07:05:51;;;;;;;8.70;3.25;;;;;;;;;;5116475;28;20288;-82
2021/08/08 07:08:20;;;;;;;9.30;3.30;;;;;;;;;;5116742;28;20249;-82
2021/08/08 07:10:51;;;;;;;11.98;3.38;;;;;;;;;;5116427;28;20194;-83
2021/08/08 07:13:20;;;;;;;12.55;3.28;;;19.50;99.90;;;;;;5116595;28;20201;-82
2021/08/08 07:15:50;;;;;;;9.85;3.72;;;;;;;;;;5116119;28;20699;-83
2021/08/08 07:18:20;;;;;;;10.13;3.50;;;;;;;;;;5116203;28;20198;-82
2021/08/08 07:20:49;;;;;;;10.15;3.40;;;;;;;;;;5116534;28;20300;-83
2021/08/08 07:23:18;;;;;;;12.70;3.70;;;;;;;;;;5116046;28;20236;-82
2021/08/08 07:25:48;;;;;;;8.55;3.22;;;;;;;;;;5116212;28;20280;-82
2021/08/08 07:28:19;;;;;;;12.23;3.33;;;;;;;;;;5116041;28;20289;-82
2021/08/08 07:30:49;;;;;;;9.93;3.13;;;;;;;;;;5116317;28;20201;-82
2021/08/08 07:33:19;;;;;;;12.15;3.60;;;;;;;;;;5115796;28;20661;-82
2021/08/08 07:35:50;;;;;;;10.63;3.40;;;;;;;;;;5115761;28;20289;-82
2021/08/08 07:38:20;;;;;;;8.38;3.00;;;;;;;;;;5116100;27;20213;-82
2021/08/08 07:40:50;;;;;;;10.25;3.13;;;;;;;;;;5116255;28;20229;-82
2021/08/08 07:43:21;;;;;;;8.80;2.80;;;;;;;;;;5115784;28;20567;-82
2021/08/08 07:45:50;;;;;;;11.98;3.17;;;;;;;;;;5115924;28;20229;-82
2021/08/08 07:48:20;;;;;;;7.57;3.13;;;;;;;;;;5116064;27;20280;-82
2021/08/08 07:50:49;;;;;;;7.80;2.83;;;;;;;;;;5115762;28;20288;-82
2021/08/08 07:53:19;;;;;;;8.48;2.88;;;;;;;;;;5115853;28;20324;-82
2021/08/08 07:55:50;;;;;;;8.45;3.20;;;;;;;;;;5115590;28;20260;-82
2021/08/08 07:58:21;;;;;;;10.13;3.33;;;;;;;;;;5115426;28;20719;-82
2021/08/08 08:00:51;;;;;;;7.95;3.15;;;;;;;;;;5115748;28;20288;-82
2021/08/08 08:03:20;;;;;;;7.43;3.08;;;;;;;;;;5115230;28;20233;-82
2021/08/08 08:05:50;;;;;;;10.25;2.80;;;;;;;;;;5115709;28;20284;-82
2021/08/08 08:08:19;;;;;;;9.70;2.97;;;;;;;;;;5115319;27;20249;-82
2021/08/08 08:10:49;;;;;;;9.20;3.35;;;;;;;;;;5115352;28;20237;-83
2021/08/08 08:13:18;;;;;;;10.60;3.08;;;;;;;;;;5114995;28;20285;-82
2021/08/08 08:15:49;;;;;;;7.13;2.65;;;;;;;;;;5115180;27;20225;-82
2021/08/08 08:18:18;;;;;;;7.63;2.60;;;;;;;;;;5115258;28;20270;-82
2021/08/08 08:20:47;;;;;;;7.47;2.70;;;;;;;;;;5114963;28;20293;-82
2021/08/08 08:23:16;;;;;;;7.10;2.50;;;;;;;;;;5115170;27;20312;-82
2021/08/08 08:25:46;;;;;;;6.45;2.70;;;;;;;;;;5114880;28;20233;-83
2021/08/08 08:28:15;;;;;;;6.97;2.30;;;;;;;;;;5114867;28;20246;-82
2021/08/08 08:30:44;;;;;;;6.05;2.38;;;;;;;;;;5114835;28;20681;-83
2021/08/08 08:33:15;;;;;;;8.73;3.10;;;;;;;;;;5114695;28;20233;-82
2021/08/08 08:35:44;;;;;;;9.45;2.83;;;;;;;;;;5114554;28;20621;-82
2021/08/08 08:38:14;;;;;;;8.43;2.80;;;;;;;;;;5114522;27;20231;-83
2021/08/08 08:40:44;;;;;;;6.10;2.60;;;;;;;;;;5114880;28;20288;-83
2021/08/08 08:43:15;;;;;;;7.10;2.55;;;;;;;;;;5114436;28;20290;-83
2021/08/08 08:45:46;;;;;;;5.82;2.38;;;;;;;;;;5114765;28;20233;-83
2021/08/08 08:48:20;;;;;;;4.70;2.38;;;;;;;;;;5114539;28;20233;-82
2021/08/08 08:50:53;;;;;;;7.47;2.55;;;;;;;;;;5114508;28;20301;-82
2021/08/08 08:53:23;;;;;;;5.45;2.40;;;;;;;;;;5113962;28;20237;-83
2021/08/08 08:55:53;;;;;;;8.07;2.60;;;;;;;;;;5114413;27;20212;-83
2021/08/08 08:58:22;;;;;;;7.47;2.42;;;;;;;;;;5114058;28;20633;-83
2021/08/08 09:00:51;;;;;;;7.93;2.42;;;;;;;;;;5114278;27;20813;-82
2021/08/08 09:03:22;;;;;;;7.72;2.42;;;;;;;;;;5114069;28;20233;-83
2021/08/08 09:05:51;;;;;;;8.85;2.88;;;;;;;;;;5113283;28;20285;-83
2021/08/08 09:08:21;;;;;;;6.28;2.08;;;;;;;;;;5114367;28;20301;-83
2021/08/08 09:11:02;;;;;;;6.15;2.83;;;;;;;;;;5113682;28;20233;-83
2021/08/08 09:13:31;;;;;;;5.35;2.08;;;;;;;;;;5114385;28;20653;-83
2021/08/08 09:16:01;;;;;;;7.18;2.60;;;;;;;;;;5113762;28;20277;-83
2021/08/08 09:18:31;;;;;;;6.07;2.00;;;;;;;;;;5113834;27;20232;-84
2021/08/08 09:21:01;;;;;;;4.93;2.20;;;;;;;;;;5113782;28;20744;-82
2021/08/08 09:23:37;;;;;;;7.45;2.60;;;;;;;;;;5114335;28;20236;-83
2021/08/08 09:26:06;;;;;;;6.85;2.20;;;;;;;;;;5114703;28;20197;-83
2021/08/08 09:28:36;;;;;;;7.50;2.00;;;;;;;;;;5115218;28;20340;-83
2021/08/08 09:31:05;;;;;;;5.68;2.03;;;;;;;;;;5115065;28;20261;-83
2021/08/08 09:33:45;;;;;;;9.80;2.78;;;;;;;;;;5115453;28;20244;-82
2021/08/08 09:36:14;;;;;;;4.53;2.00;;;;;;;;;;5115456;28;20311;-83
2021/08/08 09:38:47;;;;;;;4.68;1.90;;;;;;;;;;5115643;28;20312;-82
2021/08/08 09:41:26;;;;;;;6.35;1.90;;;;;;;;;;5115512;28;20229;-83
2021/08/08 09:43:56;;;;;;;7.32;1.75;;;;;;;;;;5115503;28;20236;-83
2021/08/08 09:46:25;;;;;;;4.70;1.98;;;;;;;;;;5115551;28;20193;-83
2021/08/08 09:48:56;;;;;;;4.45;2.10;;;;;;;;;;5115081;28;20280;-83
2021/08/08 09:51:26;;;;;;;4.22;1.67;;;;;;;;;;5114783;28;20193;-83
2021/08/08 09:53:58;;;;;;;6.30;1.98;;;;;;;;;;5113579;28;20685;-84
2021/08/08 09:56:27;;;;;;;5.95;1.80;;;;;;;;;;5114922;28;20831;-83
2021/08/08 09:58:56;;;;;;;4.65;1.75;;;;;;;;;;5115684;28;20285;-82
2021/08/08 10:01:26;;;;;;;5.25;1.75;;;;;;;;;;5115046;28;20285;-83
2021/08/08 10:03:56;;;;;;;6.53;1.90;;;;;;;;;;5115049;28;20240;-82
2021/08/08 10:06:26;;;;;;;9.15;1.98;;;;;;;;;;5115234;28;20237;-83
2021/08/08 10:08:55;;;;;;;4.32;1.80;;;;;;;;;;5114810;28;20305;-82
2021/08/08 10:11:25;;;;;;;5.35;1.95;;;;;;;;;;5114616;28;20281;-83
2021/08/08 10:14:02;;;;;;;4.80;1.90;;;;;;;;;;5115122;28;20265;-83
2021/08/08 10:16:33;;;;;;;5.68;2.05;;;;;;;;;;5115031;28;20193;-83
2021/08/08 10:19:06;;;;;;;6.00;2.08;;;;;;;;;;5114751;28;20686;-82
2021/08/08 10:21:38;;;;;;;7.28;1.80;;;;;;;;;;5115228;28;20280;-83
2021/08/08 10:24:08;;;;;;;6.40;1.92;;;;;;;;;;5115267;28;20233;-82
2021/08/08 10:26:39;;;;;;;6.50;2.08;;;;;;;;;;5115115;28;20237;-83
2021/08/08 10:29:08;;;;;;;4.43;1.90;;;;;;;;;;5114898;28;20285;-83
2021/08/08 10:31:38;;;;;;;5.28;2.35;;;;;;;;;;5114967;28;20233;-83
2021/08/08 10:34:09;;;;;;;5.93;1.73;;;;;;;;;;5115042;28;20284;-83
2021/08/08 10:36:38;;;;;;;5.05;2.03;;;;;;;;;;5123765;27;20656;-83
2021/08/08 10:39:12;;;;;;;5.35;2.03;;;;;;;;;;5134670;27;20722;-83
2021/08/08 10:41:42;;;;;;;4.72;1.70;;;;;;;;;;5135028;27;20232;-84
2021/08/08 10:44:13;;;;;;;5.75;2.42;;;;;;;;;;5135156;27;20232;-83
2021/08/08 10:46:49;;;;;;;5.25;2.15;;;;;;;;;;5135095;27;20280;-84
2021/08/08 10:49:29;;;;;;;6.13;1.75;;;;;;;;;;5135292;27;20235;-84
2021/08/08 10:52:02;;;;;;;4.00;2.00;;;;;;;;;;5134948;27;20196;-84
2021/08/08 10:54:42;;;;;;;4.45;1.50;;;;;;;;;;5135225;27;20268;-84
2021/08/08 10:57:13;;;;;;;7.07;2.17;;;;;;;;;;5135754;27;20295;-84
2021/08/08 10:59:45;;;;;;;5.95;2.42;;;;;;;;;;5135268;27;20216;-83
2021/08/08 11:02:15;;;;;;;6.38;1.60;;;;;;;;;;5134523;27;20211;-82
2021/08/08 11:04:46;;;;;;;4.03;1.33;;;;;;;;;;5135949;27;20203;-82
2021/08/08 11:07:16;;;;;;;4.55;1.75;;;;;;;;;;5135022;27;20623;-83
2021/08/08 11:09:47;;;;;;;3.97;1.48;;;;;;;;;;5135556;27;20217;-83
2021/08/08 11:12:18;;;;;;;4.22;1.58;;;;;;;;;;5135188;27;20232;-83
2021/08/08 11:14:51;;;;;;;4.00;1.75;;;;;;;;;;5135463;27;20229;-82
2021/08/08 11:17:21;;;;;;;4.90;1.90;;;;;;;;;;5135307;27;20284;-83
2021/08/08 11:19:52;;;;;;;3.47;1.50;;;;;;;;;;5135666;27;20231;-83
2021/08/08 11:22:22;;;;;;;3.08;1.52;;;;;;;;;;5135175;27;20288;-82
2021/08/08 11:24:59;;;;;;;4.43;1.85;;;;;;;;;;5135257;27;20287;-83
2021/08/08 11:27:32;;;;;;;3.47;1.60;;;;;;;;;;5134233;27;20231;-84
2021/08/08 11:30:02;;;;;;;3.88;1.50;;;;;;;;;;5135495;27;20618;-84
2021/08/08 11:32:31;;;;;;;5.43;1.75;;;;;;;;;;5138396;27;20232;-83
2021/08/08 11:35:05;;;;;;;6.32;2.47;;;;;;;;;;5137559;27;20276;-83
2021/08/08 11:37:35;;;;;;;4.07;1.80;;;;;;;;;;5137470;27;20231;-84
2021/08/08 11:40:03;;;;;;;3.40;1.77;;;;;;;;;;5137528;27;20260;-84
2021/08/08 11:42:31;;;;;;;4.05;1.60;;;;;;;;;;5137714;27;20276;-84
2021/08/08 11:44:58;;;;;;;7.38;3.17;;;;;;;;;;5137652;27;20615;-84
2021/08/08 11:47:26;;;;;;;3.65;1.55;;;;;;;;;;5137375;27;20224;-83
2021/08/08 11:49:54;;;;;;;5.57;4.18;;;;;;;;;;5136611;27;20192;-84
2021/08/08 11:52:23;;;;;;;6.68;2.70;;;;;;;;;;5137466;27;20283;-83
2021/08/08 11:54:59;;;;;;;3.53;1.83;;;;;;;;;;5137413;27;20268;-83
2021/08/08 11:57:27;;;;;;;7.15;2.92;;;;;;;;;;5137830;27;20216;-83
2021/08/08 11:59:56;;;;;;;3.42;1.50;;;;;;;;;;5137997;27;20379;-83
2021/08/08 12:02:27;;;;;;;3.92;1.40;;;;;;;;;;5137761;27;20291;-83
2021/08/08 12:04:57;;;;;;;3.85;1.50;;;;;;;;;;5137907;27;20601;-83
2021/08/08 12:07:29;;;;;;;3.97;1.40;;;;;;;;;;5138130;27;20235;-84
2021/08/08 12:09:59;;;;;;;5.65;1.73;;;;;;;;;;5138844;27;20217;-83
2021/08/08 12:12:36;;;;;;;4.25;1.40;;;;;;;;;;5138068;27;20193;-83
2021/08/08 12:15:07;;;;;;;4.22;1.40;;;;;;;;;;5137798;27;20707;-82
2021/08/08 12:17:37;;;;;;;5.70;1.55;;;;;;;;;;5137295;27;20197;-83
2021/08/08 12:20:12;;;;;;;4.78;1.45;;;;;;;;;;5137386;27;20684;-83
2021/08/08 12:22:43;;;;;;;2.83;1.05;;;;;;;;;;5137449;27;20260;-83
2021/08/08 12:25:16;;;;;;;4.35;1.40;;;;;;;;;;5138027;27;20288;-83
2021/08/08 12:27:52;;;;;;;3.70;1.30;;;;;;;;;;5138631;27;20649;-83
2021/08/08 12:30:22;;;;;;;3.80;1.30;;;;;;;;;;5137938;27;20200;-83
2021/08/08 12:32:50;;;;;;;3.72;1.30;;;;;;;;;;5138005;27;20212;-82
2021/08/08 12:35:18;;;;;;;3.22;1.38;;;;;;;;;;5138099;27;20289;-83
2021/08/08 12:37:47;;;;;;;4.65;1.10;;;;;;;;;;5118819;27;20210;-83
2021/08/08 12:40:16;;;;;;;5.25;1.42;;;;;;;;;;5116998;28;20293;-83
2021/08/08 12:42:44;;;;;;;3.85;1.30;;;;;;;;;;5116490;28;20264;-83
2021/08/08 12:45:13;;;;;;;4.35;1.45;;;;;;;;;;5116938;28;20236;-83
2021/08/08 12:47:40;;;;;;;4.25;1.15;;;;;;;;;;5116384;28;20715;-83
2021/08/08 12:50:15;;;;;;;2.85;1.00;;;;;;;;;;5116129;28;20194;-83
2021/08/08 12:52:42;;;;;;;3.58;1.10;;;;;;;;;;5116181;28;20225;-83
2021/08/08 12:55:13;;;;;;;4.07;1.10;;;;;;;;;;5117023;28;20698;-83
2021/08/08 12:57:40;;;;;;;3.80;1.35;;;;;;;;;;5115624;28;20204;-83
2021/08/08 13:00:08;;;;;;;4.68;1.23;;;;;;;;;;5116136;28;20225;-83
2021/08/08 13:02:35;;;;;;;2.67;1.10;;;;;;;;;;5116216;28;20221;-83
2021/08/08 13:05:04;;;;;;;3.60;1.20;;;;;;;;;;5116779;28;20206;-82
2021/08/08 13:07:31;;;;;;;3.60;1.38;;;;;;;;;;5116829;28;20229;-82
2021/08/08 13:09:58;;;;;;;4.45;1.10;;;;;;;;;;5116317;28;20304;-83
2021/08/08 13:12:27;;;;;;;3.38;1.20;;;;;;;;;;5114548;28;20236;-83
2021/08/08 13:14:54;;;;;;;2.15;0.90;;;;;;;;;;5116402;28;20236;-83
2021/08/08 13:17:23;;;;;;;3.60;1.20;;;;;;;;;;5116649;28;20309;-83
2021/08/08 13:19:51;;;;;;;6.07;1.30;;;;;;;;;;5116085;27;20201;-83
2021/08/08 13:22:18;;;;;;;2.30;0.90;;;;;;;;;;5116014;28;20229;-83
2021/08/08 13:24:45;;;;;;;6.28;1.10;;;;;;;;;;5116164;28;20294;-82
2021/08/08 13:27:12;;;;;;;3.38;0.98;;;;;;;;;;5115498;28;20237;-82
2021/08/08 13:29:41;;;;;;;3.78;1.10;;;;;;;;;;5116331;28;20288;-83
2021/08/08 13:32:08;;;;;;;2.83;0.90;;;;;;;;;;5115930;28;20198;-83
2021/08/08 13:34:36;;;;;;;2.25;0.70;;;;;;;;;;5116226;28;20297;-82
2021/08/08 13:37:05;;;;;;;3.55;1.20;;;;;;;;;;5116504;27;20244;-83
2021/08/08 13:39:32;;;;;;;4.57;1.08;;;;;;;;;;5116430;28;20236;-83
2021/08/08 13:42:03;;;;;;;4.80;1.20;;;;;;;;;;5116449;28;20268;-83
2021/08/08 13:44:32;;;;;;;4.80;1.35;;;;;;;;;;5116403;28;20285;-82
2021/08/08 13:47:02;;;;;;;4.53;1.30;;;;;;;;;;5115701;28;20723;-83
2021/08/08 13:49:32;;;;;;;4.68;1.20;;;;;;;;;;5115804;27;20273;-83
2021/08/08 13:52:02;;;;;;;3.33;1.10;;;;;;;;;;5116261;28;20232;-83
2021/08/08 13:54:31;;;;;;;2.80;1.10;;;;;;;;;;5115883;28;20321;-83
2021/08/08 13:57:01;;;;;;;3.80;1.38;;;;;;;;;;5115828;27;20236;-83
2021/08/08 13:59:31;;;;;;;3.58;1.00;;;;;;;;;;5115629;27;20233;-83
2021/08/08 14:02:00;;;;;;;3.03;0.93;;;;;;;;;;5115365;28;20256;-83
2021/08/08 14:04:31;;;;;;;3.28;1.05;;;;;;;;;;5115640;28;20198;-82
2021/08/08 14:07:01;;;;;;;4.07;1.38;;;;;;;;;;5115479;28;20996;-82
2021/08/08 14:09:30;;;;;;;3.90;1.10;;;;;;;;;;5115837;28;20218;-83
2021/08/08 14:12:00;;;;;;;3.72;1.15;;;;;;;;;;5115495;28;20289;-83